sensor_id;sensor_type;location;lat;lon;timestamp;P1;durP1;ratioP1;P2;durP2;ratioP2
25497;SDS011;13406;53.380;7.226;2023-05-13T00:02:13;5.73;;;3.87;;
25497;SDS011;13406;53.380;7.226;2023-05-13T00:04:39;8.87;;;4.17;;
25497;SDS011;13406;53.380;7.226;2023-05-13T00:07:04;5.40;;;4.00;;
25497;SDS011;13406;53.380;7.226;2023-05-13T00:09:30;4.67;;;3.53;;
25497;SDS011;13406;53.380;7.226;2023-05-13T00:11:55;7.00;;;4.17;;
25497;SDS011;13406;53.380;7.226;2023-05-13T00:14:20;6.13;;;4.13;;
25497;SDS011;13406;53.380;7.226;2023-05-13T00:16:46;3.53;;;3.07;;
25497;SDS011;13406;53.380;7.226;2023-05-13T00:19:12;4.90;;;3.80;;
25497;SDS011;13406;53.380;7.226;2023-05-13T00:21:37;4.30;;;3.70;;
25497;SDS011;13406;53.380;7.226;2023-05-13T00:24:03;6.10;;;4.20;;
25497;SDS011;13406;53.380;7.226;2023-05-13T00:26:29;6.97;;;4.20;;
25497;SDS011;13406;53.380;7.226;2023-05-13T00:28:54;6.70;;;3.97;;
25497;SDS011;13406;53.380;7.226;2023-05-13T00:31:20;5.20;;;3.60;;
25497;SDS011;13406;53.380;7.226;2023-05-13T00:33:45;7.30;;;4.83;;
25497;SDS011;13406;53.380;7.226;2023-05-13T00:36:11;7.20;;;4.80;;
25497;SDS011;13406;53.380;7.226;2023-05-13T00:38:36;8.17;;;4.20;;
25497;SDS011;13406;53.380;7.226;2023-05-13T00:41:02;5.97;;;4.27;;
25497;SDS011;13406;53.380;7.226;2023-05-13T00:43:28;5.53;;;4.13;;
25497;SDS011;13406;53.380;7.226;2023-05-13T00:45:54;9.07;;;4.70;;
25497;SDS011;13406;53.380;7.226;2023-05-13T00:48:20;8.17;;;4.60;;
25497;SDS011;13406;53.380;7.226;2023-05-13T00:50:46;5.10;;;4.60;;
25497;SDS011;13406;53.380;7.226;2023-05-13T00:53:12;7.43;;;4.77;;
25497;SDS011;13406;53.380;7.226;2023-05-13T00:55:45;8.80;;;4.20;;
25497;SDS011;13406;53.380;7.226;2023-05-13T00:58:11;5.10;;;4.60;;
25497;SDS011;13406;53.380;7.226;2023-05-13T01:06:17;5.70;;;4.27;;
25497;SDS011;13406;53.380;7.226;2023-05-13T01:09:02;5.90;;;4.70;;
25497;SDS011;13406;53.380;7.226;2023-05-13T01:11:32;5.60;;;4.57;;
25497;SDS011;13406;53.380;7.226;2023-05-13T01:14:03;5.83;;;4.70;;
25497;SDS011;13406;53.380;7.226;2023-05-13T01:17:08;7.20;;;4.63;;
25497;SDS011;13406;53.380;7.226;2023-05-13T01:22:08;6.97;;;5.17;;
25497;SDS011;13406;53.380;7.226;2023-05-13T01:24:34;5.53;;;4.40;;
25497;SDS011;13406;53.380;7.226;2023-05-13T01:27:00;5.90;;;4.93;;
25497;SDS011;13406;53.380;7.226;2023-05-13T01:29:26;5.67;;;4.60;;
25497;SDS011;13406;53.380;7.226;2023-05-13T01:31:52;6.10;;;4.13;;
25497;SDS011;13406;53.380;7.226;2023-05-13T01:34:20;5.30;;;4.53;;
25497;SDS011;13406;53.380;7.226;2023-05-13T01:36:47;6.20;;;4.87;;
25497;SDS011;13406;53.380;7.226;2023-05-13T01:39:13;5.33;;;4.77;;
25497;SDS011;13406;53.380;7.226;2023-05-13T01:41:39;11.23;;;4.97;;
25497;SDS011;13406;53.380;7.226;2023-05-13T01:44:05;5.80;;;5.20;;
25497;SDS011;13406;53.380;7.226;2023-05-13T01:46:31;6.10;;;4.90;;
25497;SDS011;13406;53.380;7.226;2023-05-13T01:48:56;6.43;;;5.13;;
25497;SDS011;13406;53.380;7.226;2023-05-13T01:51:21;4.87;;;4.33;;
25497;SDS011;13406;53.380;7.226;2023-05-13T01:53:47;6.90;;;4.70;;
25497;SDS011;13406;53.380;7.226;2023-05-13T01:56:12;7.80;;;4.67;;
25497;SDS011;13406;53.380;7.226;2023-05-13T01:58:38;7.70;;;4.80;;
25497;SDS011;13406;53.380;7.226;2023-05-13T02:01:03;10.53;;;5.13;;
25497;SDS011;13406;53.380;7.226;2023-05-13T02:03:29;5.23;;;4.07;;
25497;SDS011;13406;53.380;7.226;2023-05-13T02:05:54;4.97;;;4.47;;
25497;SDS011;13406;53.380;7.226;2023-05-13T02:08:20;5.20;;;4.47;;
25497;SDS011;13406;53.380;7.226;2023-05-13T02:10:57;5.30;;;4.27;;
25497;SDS011;13406;53.380;7.226;2023-05-13T02:13:23;6.40;;;5.13;;
25497;SDS011;13406;53.380;7.226;2023-05-13T02:15:49;6.90;;;5.40;;
25497;SDS011;13406;53.380;7.226;2023-05-13T02:18:14;7.40;;;5.13;;
25497;SDS011;13406;53.380;7.226;2023-05-13T02:20:40;6.80;;;5.13;;
25497;SDS011;13406;53.380;7.226;2023-05-13T02:23:05;4.47;;;4.07;;
25497;SDS011;13406;53.380;7.226;2023-05-13T02:25:32;6.20;;;5.10;;
25497;SDS011;13406;53.380;7.226;2023-05-13T02:27:57;8.90;;;4.77;;
25497;SDS011;13406;53.380;7.226;2023-05-13T02:30:23;9.50;;;5.17;;
25497;SDS011;13406;53.380;7.226;2023-05-13T02:32:51;8.90;;;4.90;;
25497;SDS011;13406;53.380;7.226;2023-05-13T02:35:17;6.03;;;5.40;;
25497;SDS011;13406;53.380;7.226;2023-05-13T02:37:43;5.80;;;5.03;;
25497;SDS011;13406;53.380;7.226;2023-05-13T02:40:09;5.93;;;5.33;;
25497;SDS011;13406;53.380;7.226;2023-05-13T02:42:34;8.67;;;5.50;;
25497;SDS011;13406;53.380;7.226;2023-05-13T02:45:00;7.10;;;5.93;;
25497;SDS011;13406;53.380;7.226;2023-05-13T02:47:25;6.20;;;5.50;;
25497;SDS011;13406;53.380;7.226;2023-05-13T02:49:51;6.97;;;5.60;;
25497;SDS011;13406;53.380;7.226;2023-05-13T02:52:18;7.17;;;5.40;;
25497;SDS011;13406;53.380;7.226;2023-05-13T02:54:44;6.83;;;5.90;;
25497;SDS011;13406;53.380;7.226;2023-05-13T02:57:09;6.53;;;5.70;;
25497;SDS011;13406;53.380;7.226;2023-05-13T02:59:35;7.17;;;6.30;;
25497;SDS011;13406;53.380;7.226;2023-05-13T03:02:00;8.40;;;5.87;;
25497;SDS011;13406;53.380;7.226;2023-05-13T03:04:26;7.17;;;5.60;;
25497;SDS011;13406;53.380;7.226;2023-05-13T03:06:51;6.83;;;5.97;;
25497;SDS011;13406;53.380;7.226;2023-05-13T03:09:17;7.30;;;6.47;;
25497;SDS011;13406;53.380;7.226;2023-05-13T03:11:42;6.87;;;5.43;;
25497;SDS011;13406;53.380;7.226;2023-05-13T03:14:08;8.20;;;5.50;;
25497;SDS011;13406;53.380;7.226;2023-05-13T03:16:33;7.27;;;5.77;;
25497;SDS011;13406;53.380;7.226;2023-05-13T03:18:58;8.53;;;6.50;;
25497;SDS011;13406;53.380;7.226;2023-05-13T03:21:24;6.63;;;5.87;;
25497;SDS011;13406;53.380;7.226;2023-05-13T03:23:49;7.63;;;5.87;;
25497;SDS011;13406;53.380;7.226;2023-05-13T03:26:15;18.23;;;6.00;;
25497;SDS011;13406;53.380;7.226;2023-05-13T03:28:40;9.60;;;6.40;;
25497;SDS011;13406;53.380;7.226;2023-05-13T03:31:06;6.40;;;5.60;;
25497;SDS011;13406;53.380;7.226;2023-05-13T03:33:31;8.73;;;6.20;;
25497;SDS011;13406;53.380;7.226;2023-05-13T03:35:57;7.40;;;6.00;;
25497;SDS011;13406;53.380;7.226;2023-05-13T03:38:22;8.63;;;6.67;;
25497;SDS011;13406;53.380;7.226;2023-05-13T03:40:48;8.70;;;6.00;;
25497;SDS011;13406;53.380;7.226;2023-05-13T03:43:13;8.57;;;6.30;;
25497;SDS011;13406;53.380;7.226;2023-05-13T03:45:39;10.80;;;6.13;;
25497;SDS011;13406;53.380;7.226;2023-05-13T03:48:04;7.37;;;6.33;;
25497;SDS011;13406;53.380;7.226;2023-05-13T03:50:30;8.70;;;7.23;;
25497;SDS011;13406;53.380;7.226;2023-05-13T03:52:55;8.40;;;6.33;;
25497;SDS011;13406;53.380;7.226;2023-05-13T03:55:21;7.90;;;6.60;;
25497;SDS011;13406;53.380;7.226;2023-05-13T03:57:47;8.07;;;7.27;;
25497;SDS011;13406;53.380;7.226;2023-05-13T04:00:13;10.13;;;7.13;;
25497;SDS011;13406;53.380;7.226;2023-05-13T04:02:39;7.83;;;7.00;;
25497;SDS011;13406;53.380;7.226;2023-05-13T04:05:04;8.87;;;7.00;;
25497;SDS011;13406;53.380;7.226;2023-05-13T04:07:30;7.50;;;6.57;;
25497;SDS011;13406;53.380;7.226;2023-05-13T04:09:56;7.53;;;6.70;;
25497;SDS011;13406;53.380;7.226;2023-05-13T04:12:21;8.10;;;7.30;;
25497;SDS011;13406;53.380;7.226;2023-05-13T04:14:47;10.17;;;7.30;;
25497;SDS011;13406;53.380;7.226;2023-05-13T04:17:12;7.10;;;6.30;;
25497;SDS011;13406;53.380;7.226;2023-05-13T04:19:37;7.60;;;6.87;;
25497;SDS011;13406;53.380;7.226;2023-05-13T04:22:03;9.17;;;6.03;;
25497;SDS011;13406;53.380;7.226;2023-05-13T04:24:29;7.83;;;5.80;;
25497;SDS011;13406;53.380;7.226;2023-05-13T04:26:54;7.53;;;6.80;;
25497;SDS011;13406;53.380;7.226;2023-05-13T04:29:19;8.00;;;7.20;;
25497;SDS011;13406;53.380;7.226;2023-05-13T04:31:45;6.97;;;6.37;;
25497;SDS011;13406;53.380;7.226;2023-05-13T04:34:10;8.20;;;5.90;;
25497;SDS011;13406;53.380;7.226;2023-05-13T04:36:36;9.53;;;7.07;;
25497;SDS011;13406;53.380;7.226;2023-05-13T04:39:01;8.80;;;7.27;;
25497;SDS011;13406;53.380;7.226;2023-05-13T04:41:27;9.90;;;8.23;;
25497;SDS011;13406;53.380;7.226;2023-05-13T04:43:52;7.40;;;6.20;;
25497;SDS011;13406;53.380;7.226;2023-05-13T04:46:18;9.53;;;7.30;;
25497;SDS011;13406;53.380;7.226;2023-05-13T04:48:43;10.10;;;7.13;;
25497;SDS011;13406;53.380;7.226;2023-05-13T04:51:13;7.23;;;6.53;;
25497;SDS011;13406;53.380;7.226;2023-05-13T04:53:39;7.70;;;6.47;;
25497;SDS011;13406;53.380;7.226;2023-05-13T04:56:05;8.03;;;7.17;;
25497;SDS011;13406;53.380;7.226;2023-05-13T04:58:30;9.37;;;6.93;;
25497;SDS011;13406;53.380;7.226;2023-05-13T05:00:56;8.80;;;7.20;;
25497;SDS011;13406;53.380;7.226;2023-05-13T05:03:22;9.20;;;6.90;;
25497;SDS011;13406;53.380;7.226;2023-05-13T05:05:48;9.43;;;6.77;;
25497;SDS011;13406;53.380;7.226;2023-05-13T05:08:13;10.00;;;6.40;;
25497;SDS011;13406;53.380;7.226;2023-05-13T05:10:39;12.97;;;7.33;;
25497;SDS011;13406;53.380;7.226;2023-05-13T05:13:04;9.67;;;6.90;;
25497;SDS011;13406;53.380;7.226;2023-05-13T05:15:30;11.60;;;7.17;;
25497;SDS011;13406;53.380;7.226;2023-05-13T05:17:55;10.20;;;6.60;;
25497;SDS011;13406;53.380;7.226;2023-05-13T05:20:21;7.43;;;6.60;;
25497;SDS011;13406;53.380;7.226;2023-05-13T05:22:48;7.00;;;6.30;;
25497;SDS011;13406;53.380;7.226;2023-05-13T05:25:14;7.97;;;6.50;;
25497;SDS011;13406;53.380;7.226;2023-05-13T05:27:40;10.00;;;6.40;;
25497;SDS011;13406;53.380;7.226;2023-05-13T05:30:07;9.07;;;6.73;;
25497;SDS011;13406;53.380;7.226;2023-05-13T05:32:34;8.60;;;6.67;;
25497;SDS011;13406;53.380;7.226;2023-05-13T05:35:00;8.07;;;6.37;;
25497;SDS011;13406;53.380;7.226;2023-05-13T05:37:27;8.00;;;7.00;;
25497;SDS011;13406;53.380;7.226;2023-05-13T05:39:53;9.27;;;6.40;;
25497;SDS011;13406;53.380;7.226;2023-05-13T05:42:19;9.67;;;6.00;;
25497;SDS011;13406;53.380;7.226;2023-05-13T05:44:44;9.73;;;6.00;;
25497;SDS011;13406;53.380;7.226;2023-05-13T05:47:11;6.37;;;5.77;;
25497;SDS011;13406;53.380;7.226;2023-05-13T05:49:37;8.40;;;5.80;;
25497;SDS011;13406;53.380;7.226;2023-05-13T05:52:02;6.43;;;5.63;;
25497;SDS011;13406;53.380;7.226;2023-05-13T05:54:28;6.13;;;5.53;;
25497;SDS011;13406;53.380;7.226;2023-05-13T05:56:53;8.53;;;6.23;;
25497;SDS011;13406;53.380;7.226;2023-05-13T05:59:19;6.57;;;5.53;;
25497;SDS011;13406;53.380;7.226;2023-05-13T06:01:44;5.87;;;5.20;;
25497;SDS011;13406;53.380;7.226;2023-05-13T06:04:10;5.10;;;4.60;;
25497;SDS011;13406;53.380;7.226;2023-05-13T06:06:35;7.70;;;6.00;;
25497;SDS011;13406;53.380;7.226;2023-05-13T06:09:01;7.27;;;5.57;;
25497;SDS011;13406;53.380;7.226;2023-05-13T06:11:26;5.53;;;4.83;;
25497;SDS011;13406;53.380;7.226;2023-05-13T06:13:52;6.37;;;5.33;;
25497;SDS011;13406;53.380;7.226;2023-05-13T06:16:18;5.60;;;4.97;;
25497;SDS011;13406;53.380;7.226;2023-05-13T06:18:43;6.33;;;4.87;;
25497;SDS011;13406;53.380;7.226;2023-05-13T06:21:09;5.43;;;4.63;;
25497;SDS011;13406;53.380;7.226;2023-05-13T06:23:34;7.27;;;4.53;;
25497;SDS011;13406;53.380;7.226;2023-05-13T06:26:00;7.03;;;4.77;;
25497;SDS011;13406;53.380;7.226;2023-05-13T06:28:25;6.27;;;5.40;;
25497;SDS011;13406;53.380;7.226;2023-05-13T06:30:51;5.40;;;4.47;;
25497;SDS011;13406;53.380;7.226;2023-05-13T06:33:17;8.63;;;5.37;;
25497;SDS011;13406;53.380;7.226;2023-05-13T06:35:43;8.33;;;4.80;;
25497;SDS011;13406;53.380;7.226;2023-05-13T06:38:12;6.47;;;4.80;;
25497;SDS011;13406;53.380;7.226;2023-05-13T06:40:38;5.60;;;4.67;;
25497;SDS011;13406;53.380;7.226;2023-05-13T06:43:03;6.63;;;4.90;;
25497;SDS011;13406;53.380;7.226;2023-05-13T06:45:29;5.10;;;4.60;;
25497;SDS011;13406;53.380;7.226;2023-05-13T06:47:54;6.27;;;4.40;;
25497;SDS011;13406;53.380;7.226;2023-05-13T06:50:20;6.20;;;4.30;;
25497;SDS011;13406;53.380;7.226;2023-05-13T06:52:46;5.60;;;4.00;;
25497;SDS011;13406;53.380;7.226;2023-05-13T06:55:11;4.30;;;3.90;;
25497;SDS011;13406;53.380;7.226;2023-05-13T06:57:37;4.83;;;4.23;;
25497;SDS011;13406;53.380;7.226;2023-05-13T07:00:04;7.63;;;4.33;;
25497;SDS011;13406;53.380;7.226;2023-05-13T07:02:30;7.00;;;4.37;;
25497;SDS011;13406;53.380;7.226;2023-05-13T07:04:55;5.73;;;3.97;;
25497;SDS011;13406;53.380;7.226;2023-05-13T07:07:20;5.23;;;3.70;;
25497;SDS011;13406;53.380;7.226;2023-05-13T07:09:46;6.27;;;4.00;;
25497;SDS011;13406;53.380;7.226;2023-05-13T07:12:11;5.43;;;4.23;;
25497;SDS011;13406;53.380;7.226;2023-05-13T07:14:38;5.40;;;4.87;;
25497;SDS011;13406;53.380;7.226;2023-05-13T07:17:03;4.73;;;3.97;;
25497;SDS011;13406;53.380;7.226;2023-05-13T07:19:29;3.97;;;3.57;;
25497;SDS011;13406;53.380;7.226;2023-05-13T07:21:55;7.67;;;4.80;;
25497;SDS011;13406;53.380;7.226;2023-05-13T07:24:20;5.90;;;4.13;;
25497;SDS011;13406;53.380;7.226;2023-05-13T07:26:46;5.93;;;3.80;;
25497;SDS011;13406;53.380;7.226;2023-05-13T07:29:12;4.80;;;4.10;;
25497;SDS011;13406;53.380;7.226;2023-05-13T07:31:37;4.50;;;3.50;;
25497;SDS011;13406;53.380;7.226;2023-05-13T07:34:03;4.20;;;3.77;;
25497;SDS011;13406;53.380;7.226;2023-05-13T07:36:28;5.30;;;4.00;;
25497;SDS011;13406;53.380;7.226;2023-05-13T07:38:54;6.77;;;4.13;;
25497;SDS011;13406;53.380;7.226;2023-05-13T07:41:19;5.53;;;4.20;;
25497;SDS011;13406;53.380;7.226;2023-05-13T07:43:45;4.63;;;3.50;;
25497;SDS011;13406;53.380;7.226;2023-05-13T07:46:11;4.23;;;3.83;;
25497;SDS011;13406;53.380;7.226;2023-05-13T07:48:36;4.50;;;3.10;;
25497;SDS011;13406;53.380;7.226;2023-05-13T07:51:01;3.97;;;3.50;;
25497;SDS011;13406;53.380;7.226;2023-05-13T07:53:27;11.57;;;3.43;;
25497;SDS011;13406;53.380;7.226;2023-05-13T07:55:52;4.67;;;3.43;;
25497;SDS011;13406;53.380;7.226;2023-05-13T07:58:18;5.53;;;3.37;;
25497;SDS011;13406;53.380;7.226;2023-05-13T08:00:44;3.73;;;3.27;;
25497;SDS011;13406;53.380;7.226;2023-05-13T08:03:09;4.00;;;3.20;;
25497;SDS011;13406;53.380;7.226;2023-05-13T08:05:36;4.73;;;2.70;;
25497;SDS011;13406;53.380;7.226;2023-05-13T08:08:01;4.20;;;3.53;;
25497;SDS011;13406;53.380;7.226;2023-05-13T08:10:28;4.40;;;3.23;;
25497;SDS011;13406;53.380;7.226;2023-05-13T08:12:54;5.43;;;3.60;;
25497;SDS011;13406;53.380;7.226;2023-05-13T08:15:21;6.77;;;3.73;;
25497;SDS011;13406;53.380;7.226;2023-05-13T08:17:47;6.80;;;3.37;;
25497;SDS011;13406;53.380;7.226;2023-05-13T08:20:13;3.33;;;3.03;;
25497;SDS011;13406;53.380;7.226;2023-05-13T08:22:39;4.93;;;3.20;;
25497;SDS011;13406;53.380;7.226;2023-05-13T08:25:05;3.37;;;3.03;;
25497;SDS011;13406;53.380;7.226;2023-05-13T08:27:31;5.50;;;3.47;;
25497;SDS011;13406;53.380;7.226;2023-05-13T08:29:56;4.77;;;3.30;;
25497;SDS011;13406;53.380;7.226;2023-05-13T08:32:21;3.67;;;2.73;;
25497;SDS011;13406;53.380;7.226;2023-05-13T08:34:47;3.80;;;3.47;;
25497;SDS011;13406;53.380;7.226;2023-05-13T08:37:12;4.20;;;3.00;;
25497;SDS011;13406;53.380;7.226;2023-05-13T08:39:38;3.30;;;2.70;;
25497;SDS011;13406;53.380;7.226;2023-05-13T08:42:03;3.93;;;3.10;;
25497;SDS011;13406;53.380;7.226;2023-05-13T08:44:32;7.33;;;2.73;;
25497;SDS011;13406;53.380;7.226;2023-05-13T08:49:53;2.97;;;2.43;;
25497;SDS011;13406;53.380;7.226;2023-05-13T08:52:20;4.13;;;2.50;;
25497;SDS011;13406;53.380;7.226;2023-05-13T08:54:46;4.60;;;2.60;;
25497;SDS011;13406;53.380;7.226;2023-05-13T08:57:13;4.00;;;2.00;;
25497;SDS011;13406;53.380;7.226;2023-05-13T08:59:39;3.63;;;2.60;;
25497;SDS011;13406;53.380;7.226;2023-05-13T09:02:04;3.30;;;2.40;;
25497;SDS011;13406;53.380;7.226;2023-05-13T09:04:30;4.60;;;2.57;;
25497;SDS011;13406;53.380;7.226;2023-05-13T09:07:01;4.23;;;2.37;;
25497;SDS011;13406;53.380;7.226;2023-05-13T09:09:28;5.10;;;2.47;;
25497;SDS011;13406;53.380;7.226;2023-05-13T09:11:54;4.53;;;2.60;;
25497;SDS011;13406;53.380;7.226;2023-05-13T09:14:20;4.37;;;2.63;;
25497;SDS011;13406;53.380;7.226;2023-05-13T09:16:51;3.27;;;2.70;;
25497;SDS011;13406;53.380;7.226;2023-05-13T09:19:19;6.97;;;2.70;;
25497;SDS011;13406;53.380;7.226;2023-05-13T09:21:48;3.00;;;2.07;;
25497;SDS011;13406;53.380;7.226;2023-05-13T09:24:14;6.63;;;2.60;;
25497;SDS011;13406;53.380;7.226;2023-05-13T09:26:45;11.07;;;2.57;;
25497;SDS011;13406;53.380;7.226;2023-05-13T09:29:19;3.70;;;2.60;;
25497;SDS011;13406;53.380;7.226;2023-05-13T09:31:47;3.20;;;2.27;;
25497;SDS011;13406;53.380;7.226;2023-05-13T09:34:15;6.97;;;2.97;;
25497;SDS011;13406;53.380;7.226;2023-05-13T09:37:02;4.90;;;2.40;;
25497;SDS011;13406;53.380;7.226;2023-05-13T09:39:31;4.40;;;2.40;;
25497;SDS011;13406;53.380;7.226;2023-05-13T09:41:57;3.07;;;2.00;;
25497;SDS011;13406;53.380;7.226;2023-05-13T09:44:25;3.07;;;2.10;;
25497;SDS011;13406;53.380;7.226;2023-05-13T09:46:50;2.23;;;1.93;;
25497;SDS011;13406;53.380;7.226;2023-05-13T09:49:20;2.37;;;2.07;;
25497;SDS011;13406;53.380;7.226;2023-05-13T09:51:47;3.20;;;2.47;;
25497;SDS011;13406;53.380;7.226;2023-05-13T09:54:12;3.87;;;2.40;;
25497;SDS011;13406;53.380;7.226;2023-05-13T09:56:37;4.47;;;2.07;;
25497;SDS011;13406;53.380;7.226;2023-05-13T09:59:03;3.13;;;2.60;;
25497;SDS011;13406;53.380;7.226;2023-05-13T10:01:29;3.50;;;2.40;;
25497;SDS011;13406;53.380;7.226;2023-05-13T10:03:55;4.50;;;2.40;;
25497;SDS011;13406;53.380;7.226;2023-05-13T10:06:23;4.00;;;2.37;;
25497;SDS011;13406;53.380;7.226;2023-05-13T10:08:50;2.47;;;2.10;;
25497;SDS011;13406;53.380;7.226;2023-05-13T10:11:17;2.37;;;2.17;;
25497;SDS011;13406;53.380;7.226;2023-05-13T10:13:45;6.57;;;2.60;;
25497;SDS011;13406;53.380;7.226;2023-05-13T10:16:14;7.60;;;2.10;;
25497;SDS011;13406;53.380;7.226;2023-05-13T10:18:42;4.73;;;1.97;;
25497;SDS011;13406;53.380;7.226;2023-05-13T10:21:08;4.03;;;2.40;;
25497;SDS011;13406;53.380;7.226;2023-05-13T10:23:33;2.33;;;1.93;;
25497;SDS011;13406;53.380;7.226;2023-05-13T10:25:59;5.10;;;2.17;;
25497;SDS011;13406;53.380;7.226;2023-05-13T10:28:26;2.57;;;1.90;;
25497;SDS011;13406;53.380;7.226;2023-05-13T10:30:52;3.00;;;1.90;;
25497;SDS011;13406;53.380;7.226;2023-05-13T10:33:18;3.70;;;2.13;;
25497;SDS011;13406;53.380;7.226;2023-05-13T10:36:00;5.80;;;1.90;;
25497;SDS011;13406;53.380;7.226;2023-05-13T10:39:02;3.47;;;2.50;;
25497;SDS011;13406;53.380;7.226;2023-05-13T10:41:38;3.60;;;1.97;;
25497;SDS011;13406;53.380;7.226;2023-05-13T10:44:39;3.47;;;2.20;;
25497;SDS011;13406;53.380;7.226;2023-05-13T10:47:08;4.30;;;2.50;;
25497;SDS011;13406;53.380;7.226;2023-05-13T10:49:49;4.77;;;2.20;;
25497;SDS011;13406;53.380;7.226;2023-05-13T10:52:18;4.30;;;2.27;;
25497;SDS011;13406;53.380;7.226;2023-05-13T10:54:56;3.53;;;2.50;;
25497;SDS011;13406;53.380;7.226;2023-05-13T10:57:34;5.53;;;2.70;;
25497;SDS011;13406;53.380;7.226;2023-05-13T11:00:15;4.53;;;2.70;;
25497;SDS011;13406;53.380;7.226;2023-05-13T11:02:43;3.83;;;2.33;;
25497;SDS011;13406;53.380;7.226;2023-05-13T11:05:18;3.97;;;2.40;;
25497;SDS011;13406;53.380;7.226;2023-05-13T11:07:55;3.63;;;2.13;;
25497;SDS011;13406;53.380;7.226;2023-05-13T11:10:30;5.33;;;2.67;;
25497;SDS011;13406;53.380;7.226;2023-05-13T11:16:01;4.20;;;1.73;;
25497;SDS011;13406;53.380;7.226;2023-05-13T11:18:31;2.63;;;1.90;;
25497;SDS011;13406;53.380;7.226;2023-05-13T11:21:02;3.23;;;2.27;;
25497;SDS011;13406;53.380;7.226;2023-05-13T11:23:28;4.40;;;2.30;;
25497;SDS011;13406;53.380;7.226;2023-05-13T11:26:09;4.20;;;2.33;;
25497;SDS011;13406;53.380;7.226;2023-05-13T11:31:42;3.30;;;2.50;;
25497;SDS011;13406;53.380;7.226;2023-05-13T11:34:12;2.63;;;2.07;;
25497;SDS011;13406;53.380;7.226;2023-05-13T11:36:51;6.50;;;2.90;;
25497;SDS011;13406;53.380;7.226;2023-05-13T11:39:21;5.73;;;2.90;;
25497;SDS011;13406;53.380;7.226;2023-05-13T11:41:51;7.53;;;3.57;;
25497;SDS011;13406;53.380;7.226;2023-05-13T11:44:21;3.63;;;2.53;;
25497;SDS011;13406;53.380;7.226;2023-05-13T11:47:01;3.40;;;2.53;;
25497;SDS011;13406;53.380;7.226;2023-05-13T11:49:34;3.70;;;2.03;;
25497;SDS011;13406;53.380;7.226;2023-05-13T12:02:33;4.43;;;2.20;;
25497;SDS011;13406;53.380;7.226;2023-05-13T12:05:00;4.60;;;2.20;;
25497;SDS011;13406;53.380;7.226;2023-05-13T12:07:29;3.43;;;2.47;;
25497;SDS011;13406;53.380;7.226;2023-05-13T12:09:55;3.93;;;2.63;;
25497;SDS011;13406;53.380;7.226;2023-05-13T12:12:22;4.80;;;2.30;;
25497;SDS011;13406;53.380;7.226;2023-05-13T12:14:48;8.03;;;1.70;;
25497;SDS011;13406;53.380;7.226;2023-05-13T12:17:18;4.47;;;2.30;;
25497;SDS011;13406;53.380;7.226;2023-05-13T12:22:49;3.90;;;1.73;;
25497;SDS011;13406;53.380;7.226;2023-05-13T12:28:16;4.00;;;2.30;;
25497;SDS011;13406;53.380;7.226;2023-05-13T12:30:58;10.23;;;1.80;;
25497;SDS011;13406;53.380;7.226;2023-05-13T12:33:26;4.80;;;2.27;;
25497;SDS011;13406;53.380;7.226;2023-05-13T12:36:13;4.30;;;2.80;;
25497;SDS011;13406;53.380;7.226;2023-05-13T12:41:34;2.60;;;2.40;;
25497;SDS011;13406;53.380;7.226;2023-05-13T12:44:00;4.77;;;2.73;;
25497;SDS011;13406;53.380;7.226;2023-05-13T12:46:38;2.33;;;2.13;;
25497;SDS011;13406;53.380;7.226;2023-05-13T12:49:14;2.80;;;1.83;;
25497;SDS011;13406;53.380;7.226;2023-05-13T12:51:40;5.50;;;2.30;;
25497;SDS011;13406;53.380;7.226;2023-05-13T12:54:05;4.93;;;2.30;;
25497;SDS011;13406;53.380;7.226;2023-05-13T12:56:30;3.10;;;2.60;;
25497;SDS011;13406;53.380;7.226;2023-05-13T12:58:56;4.40;;;2.27;;
25497;SDS011;13406;53.380;7.226;2023-05-13T13:01:21;3.10;;;2.23;;
25497;SDS011;13406;53.380;7.226;2023-05-13T13:03:47;4.23;;;2.57;;
25497;SDS011;13406;53.380;7.226;2023-05-13T13:06:12;5.40;;;2.83;;
25497;SDS011;13406;53.380;7.226;2023-05-13T13:08:39;3.40;;;2.27;;
25497;SDS011;13406;53.380;7.226;2023-05-13T13:11:04;2.33;;;2.00;;
25497;SDS011;13406;53.380;7.226;2023-05-13T13:13:30;3.70;;;2.40;;
25497;SDS011;13406;53.380;7.226;2023-05-13T13:16:07;4.90;;;2.77;;
25497;SDS011;13406;53.380;7.226;2023-05-13T13:18:38;7.93;;;2.70;;
25497;SDS011;13406;53.380;7.226;2023-05-13T13:21:04;4.87;;;2.50;;
25497;SDS011;13406;53.380;7.226;2023-05-13T13:23:31;4.33;;;2.90;;
25497;SDS011;13406;53.380;7.226;2023-05-13T13:25:57;3.40;;;2.67;;
25497;SDS011;13406;53.380;7.226;2023-05-13T13:28:23;3.63;;;2.40;;
25497;SDS011;13406;53.380;7.226;2023-05-13T13:30:50;2.60;;;2.30;;
25497;SDS011;13406;53.380;7.226;2023-05-13T13:33:15;3.33;;;2.57;;
25497;SDS011;13406;53.380;7.226;2023-05-13T13:35:44;6.10;;;3.43;;
25497;SDS011;13406;53.380;7.226;2023-05-13T13:38:11;3.10;;;2.23;;
25497;SDS011;13406;53.380;7.226;2023-05-13T13:40:36;4.80;;;2.50;;
25497;SDS011;13406;53.380;7.226;2023-05-13T13:43:03;4.90;;;2.93;;
25497;SDS011;13406;53.380;7.226;2023-05-13T13:45:29;2.63;;;2.40;;
25497;SDS011;13406;53.380;7.226;2023-05-13T13:47:55;2.40;;;2.13;;
25497;SDS011;13406;53.380;7.226;2023-05-13T13:50:21;4.87;;;2.63;;
25497;SDS011;13406;53.380;7.226;2023-05-13T13:52:46;6.73;;;2.60;;
25497;SDS011;13406;53.380;7.226;2023-05-13T13:55:12;2.50;;;2.23;;
25497;SDS011;13406;53.380;7.226;2023-05-13T13:57:38;2.63;;;2.17;;
25497;SDS011;13406;53.380;7.226;2023-05-13T14:00:06;9.70;;;2.70;;
25497;SDS011;13406;53.380;7.226;2023-05-13T14:02:31;3.20;;;2.27;;
25497;SDS011;13406;53.380;7.226;2023-05-13T14:04:57;3.20;;;2.40;;
25497;SDS011;13406;53.380;7.226;2023-05-13T14:07:23;4.63;;;2.90;;
25497;SDS011;13406;53.380;7.226;2023-05-13T14:09:48;4.90;;;3.13;;
25497;SDS011;13406;53.380;7.226;2023-05-13T14:12:14;4.27;;;3.20;;
25497;SDS011;13406;53.380;7.226;2023-05-13T14:14:39;6.87;;;3.60;;
25497;SDS011;13406;53.380;7.226;2023-05-13T14:17:05;5.17;;;3.67;;
25497;SDS011;13406;53.380;7.226;2023-05-13T14:19:30;5.40;;;3.23;;
25497;SDS011;13406;53.380;7.226;2023-05-13T14:21:55;3.20;;;2.90;;
25497;SDS011;13406;53.380;7.226;2023-05-13T14:24:21;4.70;;;3.10;;
25497;SDS011;13406;53.380;7.226;2023-05-13T14:26:47;4.33;;;2.70;;
25497;SDS011;13406;53.380;7.226;2023-05-13T14:29:12;6.63;;;2.73;;
25497;SDS011;13406;53.380;7.226;2023-05-13T14:31:38;7.20;;;3.13;;
25497;SDS011;13406;53.380;7.226;2023-05-13T14:34:03;3.30;;;2.50;;
25497;SDS011;13406;53.380;7.226;2023-05-13T14:36:30;5.63;;;2.90;;
25497;SDS011;13406;53.380;7.226;2023-05-13T14:38:57;5.77;;;2.50;;
25497;SDS011;13406;53.380;7.226;2023-05-13T14:41:23;6.10;;;2.73;;
25497;SDS011;13406;53.380;7.226;2023-05-13T14:43:49;2.67;;;2.03;;
25497;SDS011;13406;53.380;7.226;2023-05-13T14:46:15;3.30;;;2.23;;
25497;SDS011;13406;53.380;7.226;2023-05-13T14:48:41;4.23;;;2.03;;
25497;SDS011;13406;53.380;7.226;2023-05-13T14:51:07;4.00;;;2.37;;
25497;SDS011;13406;53.380;7.226;2023-05-13T14:53:32;3.23;;;2.27;;
25497;SDS011;13406;53.380;7.226;2023-05-13T14:55:58;4.00;;;2.50;;
25497;SDS011;13406;53.380;7.226;2023-05-13T14:58:23;6.93;;;2.57;;
25497;SDS011;13406;53.380;7.226;2023-05-13T15:00:49;5.97;;;2.53;;
25497;SDS011;13406;53.380;7.226;2023-05-13T15:03:14;6.50;;;2.50;;
25497;SDS011;13406;53.380;7.226;2023-05-13T15:05:41;5.20;;;2.25;;
25497;SDS011;13406;53.380;7.226;2023-05-13T15:08:09;8.00;;;2.30;;
25497;SDS011;13406;53.380;7.226;2023-05-13T15:10:35;4.00;;;2.20;;
25497;SDS011;13406;53.380;7.226;2023-05-13T15:13:01;5.13;;;2.50;;
25497;SDS011;13406;53.380;7.226;2023-05-13T15:15:26;3.90;;;1.90;;
25497;SDS011;13406;53.380;7.226;2023-05-13T15:17:51;6.43;;;2.00;;
25497;SDS011;13406;53.380;7.226;2023-05-13T15:20:17;6.50;;;2.53;;
25497;SDS011;13406;53.380;7.226;2023-05-13T15:22:42;3.90;;;2.00;;
25497;SDS011;13406;53.380;7.226;2023-05-13T15:25:08;3.63;;;1.90;;